This is the latest recevied weather packets stored in our database for station/object T77NM. If no packets are shown the sender has not sent any weather packets the latest 10 day(s).
| Time | Temp. | Humidity | Pressure | Rain* | Wind** | Luminosity | Snow |
|---|---|---|---|---|---|---|---|
| 1777549520 | 12.22° C | 53% | 1023.7 hPa | 0 mm | - | 1009 W/m² | - |
| 1777542317 | 11.67° C | 61% | 1023.6 hPa | 0 mm | - | 972 W/m² | - |
| 1777538717 | 12.22° C | 60% | 1023.2 hPa | 0 mm | - | 754 W/m² | - |
| 1777537804 | 12.22° C | 61% | 1023.2 hPa | 0 mm | - | 823 W/m² | - |
| 1777536083 | 11.67° C | 62% | 1022.7 hPa | 0 mm | - | 707 W/m² | - |
| 1777521617 | 9.44° C | 88% | 1020.6 hPa | 0 mm | - | 0 W/m² | - |
| 1777520716 | 9.44° C | 87% | 1020.5 hPa | 0 mm | - | 0 W/m² | - |
| 1777519813 | 9.44° C | 86% | 1020.3 hPa | 0 mm | - | 0 W/m² | - |
| 1777517106 | 10.56° C | 87% | 1020.1 hPa | 0 mm | - | 0 W/m² | - |
| 1777515301 | 10.56° C | 87% | 1019.9 hPa | 0 mm | - | 0 W/m² | - |
| 1777514459 | 11.11° C | 87% | 1019.7 hPa | 0 mm | - | 0 W/m² | - |
| 1777508145 | 12.78° C | 86% | 1019.1 hPa | 0 mm | - | 0 W/m² | - |
| 1777504544 | 12.78° C | 84% | 1018.7 hPa | 0 mm | - | 0 W/m² | - |
| 1777497325 | 13.89° C | 87% | 1017.7 hPa | 0 mm | - | 0 W/m² | - |
| 1777496424 | 13.89° C | 83% | 1017.5 hPa | 0 mm | - | 0 W/m² | - |
| 1777493714 | 15° C | 80% | 1016.8 hPa | 0 mm | - | 0 W/m² | - |
| 1777491010 | 15° C | 82% | 1016.5 hPa | 0 mm | - | 0 W/m² | - |
| 1777485601 | 15.56° C | 86% | 1015.5 hPa | 0 mm | - | 0 W/m² | - |
| 1777481168 | 16.11° C | 85% | 1015.1 hPa | 0 mm | - | 28 W/m² | - |
| 1777478492 | 17.22° C | 83% | 1014.9 hPa | 0 mm | - | 174 W/m² | - |
| 1777462244 | 19.44° C | 68% | 1015.2 hPa | 0 mm | - | 526 W/m² | - |
| 1777458643 | 19.44° C | 69% | 1015.4 hPa | 0 mm | - | 1085 W/m² | - |
| 1777454134 | 19.44° C | 63% | 1015.4 hPa | 0 mm | - | 638 W/m² | - |
| 1777451431 | 18.89° C | 59% | 1015.3 hPa | 0 mm | - | 809 W/m² | - |
| 1777444268 | 17.22° C | 44% | 1014.8 hPa | 0 mm | - | 315 W/m² | - |
* Rain latest hour (hover to see other rain measurements)
** Current wind speed in m/s (hover to see current wind gust speed)